Ana Sayfa
METAR-TAF:

METAR-TAF

Havaalanları :

Moroni, Komor Adaları

Enlem: 11-32S, Boylam: 043-16E, yükseklik: 29 m

Güncel hava durumu gözlemi

Rapor saat 00:00 UTC de 35 dakika önce yapıldı.
Rüzgar güneydoğudan 4 kt
Sıcaklık 22°C
Nem 73%
Basınç 1016 hPa
Görüş mesafesi 10 km veya daha fazla
2000 ft yükseklikte az bulutlu

METAR: FMCH 180000Z 13004KT 9999 FEW020 22/17 Q1016 NOSIG

Saat: 03:35 (00:35 UTC)

Tahmin

Rapor saat 17:00 UTC de 7 saat ve 35 dakika önce yapıldı.
Ayın 17'si saat 18 UTC'den ayın 18'si saat 24 UTC'ye kadar geçerli Tahmin
Rüzgar doğudan 3 kt
Görüş mesafesi 10 km veya daha fazla
2000 ft yükseklikte az bulutlu
Dönüşüyor
ayın 18'si saat 05 UTC'den ayın 18'si saat 07 UTC'ye kadar
Rüzgar güney/güneybatıdan 13 kt ve 25 kt'a kadar ani rüzgarlar
Dönüşüyor
ayın 18'si saat 15 UTC'den ayın 18'si saat 17 UTC'ye kadar
Rüzgar doğudan 3 kt

TAF: FMCH 171700Z 1718/1824 10003KT 9999 FEW020 BECMG 1805/1807 21013G25KT BECMG 1815/1817 09003KT

4.000'den fazla havaalanı için hava durumu gözlemleri ve tahminleri (METAR ve TAF raporları).

Kullanılabilir istasyonlar harita üzerinde sarı ve kırmızı noktalarla gösterilir.

İstasyonun adını görmek için fareyi noktanın üzerinde gezdirin.

Sonrasında hava gözlem ve tahminlerini görmek için tıklayın.

Haritayı değiştirmek için: yaklaştırmak için siyah artı işaretli yeşil düğmeye ve uzaklaştırmak için de eksi işaretli düğmeye hızla tıklayın; bitişik haritalar için yeşil okları kullanın.


METAR-TAF: